sensor_id;sensor_type;location;lat;lon;timestamp;temperature;humidity
23089;DHT22;11713;48.506;8.966;2022-11-15T00:01:14;6.00;99.90
23089;DHT22;11713;48.506;8.966;2022-11-15T00:04:00;6.00;99.90
23089;DHT22;11713;48.506;8.966;2022-11-15T00:06:45;5.80;99.90
23089;DHT22;11713;48.506;8.966;2022-11-15T00:09:30;5.80;99.90
23089;DHT22;11713;48.506;8.966;2022-11-15T00:12:14;5.70;99.90
23089;DHT22;11713;48.506;8.966;2022-11-15T00:14:59;5.70;99.90
23089;DHT22;11713;48.506;8.966;2022-11-15T00:17:44;5.70;99.90
23089;DHT22;11713;48.506;8.966;2022-11-15T00:20:35;5.60;99.90
23089;DHT22;11713;48.506;8.966;2022-11-15T00:23:20;5.60;99.90
23089;DHT22;11713;48.506;8.966;2022-11-15T00:26:05;5.60;99.90
23089;DHT22;11713;48.506;8.966;2022-11-15T00:28:52;5.60;99.90
23089;DHT22;11713;48.506;8.966;2022-11-15T00:31:37;5.50;99.90
23089;DHT22;11713;48.506;8.966;2022-11-15T00:34:21;5.50;99.90
23089;DHT22;11713;48.506;8.966;2022-11-15T00:37:06;5.50;99.90
23089;DHT22;11713;48.506;8.966;2022-11-15T00:39:51;5.50;99.90
23089;DHT22;11713;48.506;8.966;2022-11-15T00:42:35;5.50;99.90
23089;DHT22;11713;48.506;8.966;2022-11-15T00:45:20;5.50;99.90
23089;DHT22;11713;48.506;8.966;2022-11-15T00:48:05;5.50;99.90
23089;DHT22;11713;48.506;8.966;2022-11-15T00:50:52;5.40;99.90
23089;DHT22;11713;48.506;8.966;2022-11-15T00:53:36;5.40;99.90
23089;DHT22;11713;48.506;8.966;2022-11-15T00:56:21;5.40;99.90
23089;DHT22;11713;48.506;8.966;2022-11-15T00:59:05;5.40;99.90
23089;DHT22;11713;48.506;8.966;2022-11-15T01:01:50;5.40;99.90
23089;DHT22;11713;48.506;8.966;2022-11-15T01:04:34;5.40;99.90
23089;DHT22;11713;48.506;8.966;2022-11-15T01:07:19;5.30;99.90
23089;DHT22;11713;48.506;8.966;2022-11-15T01:10:05;5.30;99.90
23089;DHT22;11713;48.506;8.966;2022-11-15T01:12:49;5.30;99.90
23089;DHT22;11713;48.506;8.966;2022-11-15T01:15:34;5.30;99.90
23089;DHT22;11713;48.506;8.966;2022-11-15T01:18:21;5.30;99.90
23089;DHT22;11713;48.506;8.966;2022-11-15T01:21:15;5.30;99.90
23089;DHT22;11713;48.506;8.966;2022-11-15T01:24:00;5.30;99.90
23089;DHT22;11713;48.506;8.966;2022-11-15T01:26:44;5.30;99.90
23089;DHT22;11713;48.506;8.966;2022-11-15T01:29:29;5.30;99.90
23089;DHT22;11713;48.506;8.966;2022-11-15T01:32:14;5.30;99.90
23089;DHT22;11713;48.506;8.966;2022-11-15T01:34:58;5.30;99.90
23089;DHT22;11713;48.506;8.966;2022-11-15T01:37:43;5.30;99.90
23089;DHT22;11713;48.506;8.966;2022-11-15T01:40:27;5.30;99.90
23089;DHT22;11713;48.506;8.966;2022-11-15T01:43:23;5.20;99.90
23089;DHT22;11713;48.506;8.966;2022-11-15T01:46:33;5.30;99.90
23089;DHT22;11713;48.506;8.966;2022-11-15T01:49:21;5.20;99.90
23089;DHT22;11713;48.506;8.966;2022-11-15T01:52:13;5.20;99.90
23089;DHT22;11713;48.506;8.966;2022-11-15T01:55:07;5.20;99.90
23089;DHT22;11713;48.506;8.966;2022-11-15T01:57:55;5.20;99.90
23089;DHT22;11713;48.506;8.966;2022-11-15T02:00:41;5.20;99.90
23089;DHT22;11713;48.506;8.966;2022-11-15T02:03:34;5.10;99.90
23089;DHT22;11713;48.506;8.966;2022-11-15T02:06:22;5.10;99.90
23089;DHT22;11713;48.506;8.966;2022-11-15T02:09:06;5.00;99.90
23089;DHT22;11713;48.506;8.966;2022-11-15T02:11:53;5.00;99.90
23089;DHT22;11713;48.506;8.966;2022-11-15T02:14:41;5.00;99.90
23089;DHT22;11713;48.506;8.966;2022-11-15T02:26:42;4.90;99.90
23089;DHT22;11713;48.506;8.966;2022-11-15T02:36:07;4.90;99.90
23089;DHT22;11713;48.506;8.966;2022-11-15T02:42:06;4.80;99.90
23089;DHT22;11713;48.506;8.966;2022-11-15T02:45:17;4.70;99.90
23089;DHT22;11713;48.506;8.966;2022-11-15T02:48:04;4.70;99.90
23089;DHT22;11713;48.506;8.966;2022-11-15T02:50:50;4.70;99.90
23089;DHT22;11713;48.506;8.966;2022-11-15T02:53:35;4.70;99.90
23089;DHT22;11713;48.506;8.966;2022-11-15T02:56:23;4.70;99.90
23089;DHT22;11713;48.506;8.966;2022-11-15T02:59:23;4.80;99.90
23089;DHT22;11713;48.506;8.966;2022-11-15T03:11:15;4.70;99.90
23089;DHT22;11713;48.506;8.966;2022-11-15T03:17:26;4.70;99.90
23089;DHT22;11713;48.506;8.966;2022-11-15T03:20:15;4.70;99.90
23089;DHT22;11713;48.506;8.966;2022-11-15T03:23:08;4.70;99.90
23089;DHT22;11713;48.506;8.966;2022-11-15T03:25:53;4.70;99.90
23089;DHT22;11713;48.506;8.966;2022-11-15T03:28:44;4.70;99.90
23089;DHT22;11713;48.506;8.966;2022-11-15T03:31:34;4.70;99.90
23089;DHT22;11713;48.506;8.966;2022-11-15T03:34:35;4.80;99.90
23089;DHT22;11713;48.506;8.966;2022-11-15T03:37:27;4.80;99.90
23089;DHT22;11713;48.506;8.966;2022-11-15T03:40:13;4.80;99.90
23089;DHT22;11713;48.506;8.966;2022-11-15T03:46:53;4.80;99.90
23089;DHT22;11713;48.506;8.966;2022-11-15T03:49:34;4.80;99.90
23089;DHT22;11713;48.506;8.966;2022-11-15T03:52:20;4.70;99.90
23089;DHT22;11713;48.506;8.966;2022-11-15T03:55:07;4.70;99.90
23089;DHT22;11713;48.506;8.966;2022-11-15T03:57:56;4.70;99.90
23089;DHT22;11713;48.506;8.966;2022-11-15T04:00:42;4.60;99.90
23089;DHT22;11713;48.506;8.966;2022-11-15T04:03:26;4.60;99.90
23089;DHT22;11713;48.506;8.966;2022-11-15T04:06:11;4.60;99.90
23089;DHT22;11713;48.506;8.966;2022-11-15T04:08:55;4.60;99.90
23089;DHT22;11713;48.506;8.966;2022-11-15T04:11:39;4.70;99.90
23089;DHT22;11713;48.506;8.966;2022-11-15T04:14:27;4.70;99.90
23089;DHT22;11713;48.506;8.966;2022-11-15T04:17:12;4.60;99.90
23089;DHT22;11713;48.506;8.966;2022-11-15T04:19:56;4.60;99.90
23089;DHT22;11713;48.506;8.966;2022-11-15T04:23:01;4.60;99.90
23089;DHT22;11713;48.506;8.966;2022-11-15T04:26:10;4.60;99.90
23089;DHT22;11713;48.506;8.966;2022-11-15T04:28:55;4.60;99.90
23089;DHT22;11713;48.506;8.966;2022-11-15T04:31:58;4.60;99.90
23089;DHT22;11713;48.506;8.966;2022-11-15T04:34:43;4.60;99.90
23089;DHT22;11713;48.506;8.966;2022-11-15T04:37:27;4.60;99.90
23089;DHT22;11713;48.506;8.966;2022-11-15T04:40:16;4.60;99.90
23089;DHT22;11713;48.506;8.966;2022-11-15T04:43:01;4.60;99.90
23089;DHT22;11713;48.506;8.966;2022-11-15T04:45:47;4.60;99.90
23089;DHT22;11713;48.506;8.966;2022-11-15T04:48:31;4.70;99.90
23089;DHT22;11713;48.506;8.966;2022-11-15T04:51:16;4.70;99.90
23089;DHT22;11713;48.506;8.966;2022-11-15T04:54:01;4.70;99.90
23089;DHT22;11713;48.506;8.966;2022-11-15T04:56:47;4.70;99.90
23089;DHT22;11713;48.506;8.966;2022-11-15T04:59:32;4.70;99.90
23089;DHT22;11713;48.506;8.966;2022-11-15T05:02:17;4.70;99.90
23089;DHT22;11713;48.506;8.966;2022-11-15T05:05:02;4.70;99.90
23089;DHT22;11713;48.506;8.966;2022-11-15T05:07:46;4.70;99.90
23089;DHT22;11713;48.506;8.966;2022-11-15T05:10:31;4.80;99.90
23089;DHT22;11713;48.506;8.966;2022-11-15T05:13:16;4.80;99.90
23089;DHT22;11713;48.506;8.966;2022-11-15T05:16:01;4.80;99.90
23089;DHT22;11713;48.506;8.966;2022-11-15T05:18:45;4.80;99.90
23089;DHT22;11713;48.506;8.966;2022-11-15T05:21:33;4.80;99.90
23089;DHT22;11713;48.506;8.966;2022-11-15T05:24:18;4.80;99.90
23089;DHT22;11713;48.506;8.966;2022-11-15T05:27:02;4.80;99.90
23089;DHT22;11713;48.506;8.966;2022-11-15T05:29:47;4.80;99.90
23089;DHT22;11713;48.506;8.966;2022-11-15T05:32:31;4.80;99.90
23089;DHT22;11713;48.506;8.966;2022-11-15T05:35:50;4.80;99.90
23089;DHT22;11713;48.506;8.966;2022-11-15T05:38:39;4.70;99.90
23089;DHT22;11713;48.506;8.966;2022-11-15T05:41:30;4.70;99.90
23089;DHT22;11713;48.506;8.966;2022-11-15T05:44:18;4.70;99.90
23089;DHT22;11713;48.506;8.966;2022-11-15T05:47:07;4.70;99.90
23089;DHT22;11713;48.506;8.966;2022-11-15T05:49:55;4.70;99.90
23089;DHT22;11713;48.506;8.966;2022-11-15T05:52:40;4.70;99.90
23089;DHT22;11713;48.506;8.966;2022-11-15T05:55:24;4.70;99.90
23089;DHT22;11713;48.506;8.966;2022-11-15T05:58:09;4.70;99.90
23089;DHT22;11713;48.506;8.966;2022-11-15T06:00:54;4.70;99.90
23089;DHT22;11713;48.506;8.966;2022-11-15T06:03:38;4.60;99.90
23089;DHT22;11713;48.506;8.966;2022-11-15T06:06:23;4.60;99.90
23089;DHT22;11713;48.506;8.966;2022-11-15T06:09:08;4.40;99.90
23089;DHT22;11713;48.506;8.966;2022-11-15T06:11:52;4.30;99.90
23089;DHT22;11713;48.506;8.966;2022-11-15T06:14:37;4.30;99.90
23089;DHT22;11713;48.506;8.966;2022-11-15T06:17:22;4.30;99.90
23089;DHT22;11713;48.506;8.966;2022-11-15T06:20:06;4.40;99.90
23089;DHT22;11713;48.506;8.966;2022-11-15T06:22:50;4.40;99.90
23089;DHT22;11713;48.506;8.966;2022-11-15T06:25:37;4.40;99.90
23089;DHT22;11713;48.506;8.966;2022-11-15T06:28:22;4.40;99.90
23089;DHT22;11713;48.506;8.966;2022-11-15T06:31:09;4.40;99.90
23089;DHT22;11713;48.506;8.966;2022-11-15T06:33:55;4.40;99.90
23089;DHT22;11713;48.506;8.966;2022-11-15T06:36:39;4.40;99.90
23089;DHT22;11713;48.506;8.966;2022-11-15T06:39:24;4.40;99.90
23089;DHT22;11713;48.506;8.966;2022-11-15T06:42:08;4.40;99.90
23089;DHT22;11713;48.506;8.966;2022-11-15T06:44:53;4.50;99.90
23089;DHT22;11713;48.506;8.966;2022-11-15T06:47:47;4.50;99.90
23089;DHT22;11713;48.506;8.966;2022-11-15T06:50:31;4.60;99.90
23089;DHT22;11713;48.506;8.966;2022-11-15T06:53:16;4.70;99.90
23089;DHT22;11713;48.506;8.966;2022-11-15T06:56:02;4.80;99.90
23089;DHT22;11713;48.506;8.966;2022-11-15T06:58:47;4.80;99.90
23089;DHT22;11713;48.506;8.966;2022-11-15T07:01:32;4.90;99.90
23089;DHT22;11713;48.506;8.966;2022-11-15T07:04:16;4.90;99.90
23089;DHT22;11713;48.506;8.966;2022-11-15T07:07:01;4.90;99.90
23089;DHT22;11713;48.506;8.966;2022-11-15T07:09:45;4.90;99.90
23089;DHT22;11713;48.506;8.966;2022-11-15T07:12:30;4.90;99.90
23089;DHT22;11713;48.506;8.966;2022-11-15T07:15:16;4.90;99.90
23089;DHT22;11713;48.506;8.966;2022-11-15T07:18:01;5.00;99.90
23089;DHT22;11713;48.506;8.966;2022-11-15T07:20:45;5.00;99.90
23089;DHT22;11713;48.506;8.966;2022-11-15T07:23:30;5.00;99.90
23089;DHT22;11713;48.506;8.966;2022-11-15T07:26:15;5.00;99.90
23089;DHT22;11713;48.506;8.966;2022-11-15T07:28:59;5.10;99.90
23089;DHT22;11713;48.506;8.966;2022-11-15T07:31:44;5.10;99.90
23089;DHT22;11713;48.506;8.966;2022-11-15T07:34:29;5.10;99.90
23089;DHT22;11713;48.506;8.966;2022-11-15T07:37:13;5.10;99.90
23089;DHT22;11713;48.506;8.966;2022-11-15T07:39:58;5.20;99.90
23089;DHT22;11713;48.506;8.966;2022-11-15T07:42:42;5.30;99.90
23089;DHT22;11713;48.506;8.966;2022-11-15T07:45:44;5.30;99.90
23089;DHT22;11713;48.506;8.966;2022-11-15T07:48:29;5.30;99.90
23089;DHT22;11713;48.506;8.966;2022-11-15T07:51:17;5.40;99.90
23089;DHT22;11713;48.506;8.966;2022-11-15T07:54:02;5.40;99.90
23089;DHT22;11713;48.506;8.966;2022-11-15T07:56:46;5.50;99.90
23089;DHT22;11713;48.506;8.966;2022-11-15T07:59:31;5.50;99.90
23089;DHT22;11713;48.506;8.966;2022-11-15T08:02:16;5.50;99.90
23089;DHT22;11713;48.506;8.966;2022-11-15T08:05:01;5.50;99.90
23089;DHT22;11713;48.506;8.966;2022-11-15T08:07:46;5.50;99.90
23089;DHT22;11713;48.506;8.966;2022-11-15T08:10:31;5.50;99.90
23089;DHT22;11713;48.506;8.966;2022-11-15T08:13:16;5.60;99.90
23089;DHT22;11713;48.506;8.966;2022-11-15T08:16:02;5.60;99.90
23089;DHT22;11713;48.506;8.966;2022-11-15T08:18:49;5.70;99.90
23089;DHT22;11713;48.506;8.966;2022-11-15T08:21:34;5.80;99.90
23089;DHT22;11713;48.506;8.966;2022-11-15T08:24:20;5.80;99.90
23089;DHT22;11713;48.506;8.966;2022-11-15T08:27:06;5.90;99.90
23089;DHT22;11713;48.506;8.966;2022-11-15T08:29:58;6.00;99.90
23089;DHT22;11713;48.506;8.966;2022-11-15T08:32:43;6.10;99.90
23089;DHT22;11713;48.506;8.966;2022-11-15T08:35:28;6.20;99.90
23089;DHT22;11713;48.506;8.966;2022-11-15T08:38:12;6.30;99.90
23089;DHT22;11713;48.506;8.966;2022-11-15T08:41:03;6.30;99.90
23089;DHT22;11713;48.506;8.966;2022-11-15T08:43:48;6.40;99.90
23089;DHT22;11713;48.506;8.966;2022-11-15T08:46:33;6.50;99.90
23089;DHT22;11713;48.506;8.966;2022-11-15T08:49:18;6.60;99.90
23089;DHT22;11713;48.506;8.966;2022-11-15T08:52:03;6.60;99.90
23089;DHT22;11713;48.506;8.966;2022-11-15T08:54:47;6.70;99.90
23089;DHT22;11713;48.506;8.966;2022-11-15T08:57:32;6.80;99.90
23089;DHT22;11713;48.506;8.966;2022-11-15T09:00:17;6.90;99.90
23089;DHT22;11713;48.506;8.966;2022-11-15T09:03:04;7.00;99.90
23089;DHT22;11713;48.506;8.966;2022-11-15T09:05:57;7.10;99.90
23089;DHT22;11713;48.506;8.966;2022-11-15T09:08:42;7.20;99.90
23089;DHT22;11713;48.506;8.966;2022-11-15T09:11:26;7.30;99.90
23089;DHT22;11713;48.506;8.966;2022-11-15T09:14:12;7.30;99.90
23089;DHT22;11713;48.506;8.966;2022-11-15T09:16:57;7.30;99.90
23089;DHT22;11713;48.506;8.966;2022-11-15T09:19:41;7.30;99.90
23089;DHT22;11713;48.506;8.966;2022-11-15T09:22:26;7.40;99.90
23089;DHT22;11713;48.506;8.966;2022-11-15T09:25:10;7.40;99.90
23089;DHT22;11713;48.506;8.966;2022-11-15T09:27:55;7.50;99.90
23089;DHT22;11713;48.506;8.966;2022-11-15T09:30:44;7.50;99.90
23089;DHT22;11713;48.506;8.966;2022-11-15T09:33:28;7.60;99.90
23089;DHT22;11713;48.506;8.966;2022-11-15T09:36:13;7.60;99.90
23089;DHT22;11713;48.506;8.966;2022-11-15T09:38:58;7.70;99.90
23089;DHT22;11713;48.506;8.966;2022-11-15T09:50:46;8.10;99.90
23089;DHT22;11713;48.506;8.966;2022-11-15T09:53:22;8.20;99.90
23089;DHT22;11713;48.506;8.966;2022-11-15T09:56:12;8.30;99.90
23089;DHT22;11713;48.506;8.966;2022-11-15T10:04:36;8.60;99.90
23089;DHT22;11713;48.506;8.966;2022-11-15T10:07:18;8.70;99.90
23089;DHT22;11713;48.506;8.966;2022-11-15T10:10:36;8.80;99.90
23089;DHT22;11713;48.506;8.966;2022-11-15T10:12:35;8.80;99.90
23089;DHT22;11713;48.506;8.966;2022-11-15T10:15:05;8.90;99.90
23089;DHT22;11713;48.506;8.966;2022-11-15T10:17:59;9.00;99.90
23089;DHT22;11713;48.506;8.966;2022-11-15T10:20:29;9.10;99.90
23089;DHT22;11713;48.506;8.966;2022-11-15T10:23:00;9.10;99.90
23089;DHT22;11713;48.506;8.966;2022-11-15T10:25:31;9.20;99.90
23089;DHT22;11713;48.506;8.966;2022-11-15T10:28:00;9.20;99.90
23089;DHT22;11713;48.506;8.966;2022-11-15T10:30:37;9.30;99.90
23089;DHT22;11713;48.506;8.966;2022-11-15T10:33:38;9.30;99.90
23089;DHT22;11713;48.506;8.966;2022-11-15T10:44:01;9.40;99.90
23089;DHT22;11713;48.506;8.966;2022-11-15T10:46:27;9.50;99.90
23089;DHT22;11713;48.506;8.966;2022-11-15T10:48:53;9.50;99.90
23089;DHT22;11713;48.506;8.966;2022-11-15T10:51:27;9.50;99.90
23089;DHT22;11713;48.506;8.966;2022-11-15T10:53:57;9.50;99.90
23089;DHT22;11713;48.506;8.966;2022-11-15T10:56:25;9.50;99.90
23089;DHT22;11713;48.506;8.966;2022-11-15T10:58:56;9.60;99.90
23089;DHT22;11713;48.506;8.966;2022-11-15T11:04:04;9.60;99.90
23089;DHT22;11713;48.506;8.966;2022-11-15T11:06:55;9.70;99.90
23089;DHT22;11713;48.506;8.966;2022-11-15T11:09:32;9.70;99.90
23089;DHT22;11713;48.506;8.966;2022-11-15T11:11:59;9.80;99.90
23089;DHT22;11713;48.506;8.966;2022-11-15T11:14:36;9.80;99.90
23089;DHT22;11713;48.506;8.966;2022-11-15T11:27:35;10.00;99.90
23089;DHT22;11713;48.506;8.966;2022-11-15T11:30:18;10.10;99.90
23089;DHT22;11713;48.506;8.966;2022-11-15T11:33:10;10.10;99.90
23089;DHT22;11713;48.506;8.966;2022-11-15T11:35:50;10.20;99.90
23089;DHT22;11713;48.506;8.966;2022-11-15T11:41:55;10.30;99.90
23089;DHT22;11713;48.506;8.966;2022-11-15T11:45:01;10.30;99.90
23089;DHT22;11713;48.506;8.966;2022-11-15T11:47:23;10.40;99.90
23089;DHT22;11713;48.506;8.966;2022-11-15T11:50:00;10.40;99.90
23089;DHT22;11713;48.506;8.966;2022-11-15T11:52:51;10.50;99.90
23089;DHT22;11713;48.506;8.966;2022-11-15T11:55:50;10.50;99.90
23089;DHT22;11713;48.506;8.966;2022-11-15T12:14:33;10.40;99.90
23089;DHT22;11713;48.506;8.966;2022-11-15T12:17:00;10.50;99.90
23089;DHT22;11713;48.506;8.966;2022-11-15T12:19:26;10.50;99.90
23089;DHT22;11713;48.506;8.966;2022-11-15T12:22:17;10.50;99.90
23089;DHT22;11713;48.506;8.966;2022-11-15T12:27:39;10.60;99.90
23089;DHT22;11713;48.506;8.966;2022-11-15T12:30:21;10.60;99.90
23089;DHT22;11713;48.506;8.966;2022-11-15T12:33:00;10.70;99.90
23089;DHT22;11713;48.506;8.966;2022-11-15T12:35:38;10.70;99.90
23089;DHT22;11713;48.506;8.966;2022-11-15T12:38:10;10.80;99.90
23089;DHT22;11713;48.506;8.966;2022-11-15T12:40:38;10.80;99.90
23089;DHT22;11713;48.506;8.966;2022-11-15T12:45:44;10.90;99.90
23089;DHT22;11713;48.506;8.966;2022-11-15T12:50:59;10.90;99.90
23089;DHT22;11713;48.506;8.966;2022-11-15T12:53:33;10.90;99.90
23089;DHT22;11713;48.506;8.966;2022-11-15T12:58:56;10.90;99.90
23089;DHT22;11713;48.506;8.966;2022-11-15T13:06:45;10.90;99.90
23089;DHT22;11713;48.506;8.966;2022-11-15T13:12:11;10.90;99.90
23089;DHT22;11713;48.506;8.966;2022-11-15T13:14:58;11.00;99.90
23089;DHT22;11713;48.506;8.966;2022-11-15T13:17:33;11.00;99.90
23089;DHT22;11713;48.506;8.966;2022-11-15T13:23:08;11.10;99.90
23089;DHT22;11713;48.506;8.966;2022-11-15T13:35:46;11.10;99.90
23089;DHT22;11713;48.506;8.966;2022-11-15T13:38:29;11.10;99.90
23089;DHT22;11713;48.506;8.966;2022-11-15T13:40:57;11.10;99.90
23089;DHT22;11713;48.506;8.966;2022-11-15T13:43:26;11.10;99.90
23089;DHT22;11713;48.506;8.966;2022-11-15T13:48:40;11.10;99.90
23089;DHT22;11713;48.506;8.966;2022-11-15T13:51:22;11.10;99.90
23089;DHT22;11713;48.506;8.966;2022-11-15T13:54:10;11.10;99.90
23089;DHT22;11713;48.506;8.966;2022-11-15T13:56:47;11.10;99.90
23089;DHT22;11713;48.506;8.966;2022-11-15T13:59:33;11.10;99.90
23089;DHT22;11713;48.506;8.966;2022-11-15T14:02:11;11.10;99.90
23089;DHT22;11713;48.506;8.966;2022-11-15T14:04:45;11.10;99.90
23089;DHT22;11713;48.506;8.966;2022-11-15T14:07:20;11.20;99.90
23089;DHT22;11713;48.506;8.966;2022-11-15T14:09:47;11.10;99.90
23089;DHT22;11713;48.506;8.966;2022-11-15T14:12:33;11.10;99.90
23089;DHT22;11713;48.506;8.966;2022-11-15T14:15:17;11.10;99.90
23089;DHT22;11713;48.506;8.966;2022-11-15T14:17:44;11.10;99.90
23089;DHT22;11713;48.506;8.966;2022-11-15T14:22:57;11.10;99.90
23089;DHT22;11713;48.506;8.966;2022-11-15T14:25:25;11.10;99.90
23089;DHT22;11713;48.506;8.966;2022-11-15T14:30:57;11.00;99.90
23089;DHT22;11713;48.506;8.966;2022-11-15T14:35:58;11.00;99.90
23089;DHT22;11713;48.506;8.966;2022-11-15T14:38:26;11.00;99.90
23089;DHT22;11713;48.506;8.966;2022-11-15T14:40:55;10.90;99.90
23089;DHT22;11713;48.506;8.966;2022-11-15T14:43:22;10.90;99.90
23089;DHT22;11713;48.506;8.966;2022-11-15T14:45:49;10.90;99.90
23089;DHT22;11713;48.506;8.966;2022-11-15T14:48:17;10.80;99.90
23089;DHT22;11713;48.506;8.966;2022-11-15T14:50:43;10.80;99.90
23089;DHT22;11713;48.506;8.966;2022-11-15T14:53:15;10.80;99.90
23089;DHT22;11713;48.506;8.966;2022-11-15T14:55:42;10.80;99.90
23089;DHT22;11713;48.506;8.966;2022-11-15T14:58:08;10.80;99.90
23089;DHT22;11713;48.506;8.966;2022-11-15T15:00:36;10.80;99.90
23089;DHT22;11713;48.506;8.966;2022-11-15T15:03:03;10.80;99.90
23089;DHT22;11713;48.506;8.966;2022-11-15T15:05:37;10.80;99.90
23089;DHT22;11713;48.506;8.966;2022-11-15T15:08:05;10.80;99.90
23089;DHT22;11713;48.506;8.966;2022-11-15T15:10:36;10.80;99.90
23089;DHT22;11713;48.506;8.966;2022-11-15T15:13:04;10.70;99.90
23089;DHT22;11713;48.506;8.966;2022-11-15T15:15:35;10.70;99.90
23089;DHT22;11713;48.506;8.966;2022-11-15T15:18:02;10.70;99.90
23089;DHT22;11713;48.506;8.966;2022-11-15T15:20:29;10.60;99.90
23089;DHT22;11713;48.506;8.966;2022-11-15T15:22:55;10.60;99.90
23089;DHT22;11713;48.506;8.966;2022-11-15T15:25:29;10.60;99.90
23089;DHT22;11713;48.506;8.966;2022-11-15T15:27:56;10.50;99.90
23089;DHT22;11713;48.506;8.966;2022-11-15T15:30:26;10.50;99.90
23089;DHT22;11713;48.506;8.966;2022-11-15T15:32:52;10.40;99.90
23089;DHT22;11713;48.506;8.966;2022-11-15T15:35:20;10.40;99.90
23089;DHT22;11713;48.506;8.966;2022-11-15T15:37:47;10.40;99.90
23089;DHT22;11713;48.506;8.966;2022-11-15T15:40:25;10.30;99.90
23089;DHT22;11713;48.506;8.966;2022-11-15T15:42:55;10.30;99.90
23089;DHT22;11713;48.506;8.966;2022-11-15T15:45:21;10.30;99.90
23089;DHT22;11713;48.506;8.966;2022-11-15T15:47:48;10.30;99.90
23089;DHT22;11713;48.506;8.966;2022-11-15T15:50:35;10.30;99.90
23089;DHT22;11713;48.506;8.966;2022-11-15T15:53:03;10.30;99.90
23089;DHT22;11713;48.506;8.966;2022-11-15T15:55:32;10.20;99.90
23089;DHT22;11713;48.506;8.966;2022-11-15T15:57:58;10.30;99.90
23089;DHT22;11713;48.506;8.966;2022-11-15T16:00:25;10.20;99.90
23089;DHT22;11713;48.506;8.966;2022-11-15T16:02:51;10.20;99.90
23089;DHT22;11713;48.506;8.966;2022-11-15T16:05:18;10.20;99.90
23089;DHT22;11713;48.506;8.966;2022-11-15T16:07:45;10.20;99.90
23089;DHT22;11713;48.506;8.966;2022-11-15T16:10:22;10.20;99.90
23089;DHT22;11713;48.506;8.966;2022-11-15T16:12:48;10.20;99.90
23089;DHT22;11713;48.506;8.966;2022-11-15T16:15:14;10.20;99.90
23089;DHT22;11713;48.506;8.966;2022-11-15T16:17:46;10.10;99.90
23089;DHT22;11713;48.506;8.966;2022-11-15T16:22:52;10.10;99.90
23089;DHT22;11713;48.506;8.966;2022-11-15T16:25:18;10.10;99.90
23089;DHT22;11713;48.506;8.966;2022-11-15T16:27:44;10.10;99.90
23089;DHT22;11713;48.506;8.966;2022-11-15T16:30:15;10.10;99.90
23089;DHT22;11713;48.506;8.966;2022-11-15T16:32:44;10.00;99.90
23089;DHT22;11713;48.506;8.966;2022-11-15T16:35:14;10.00;99.90
23089;DHT22;11713;48.506;8.966;2022-11-15T16:37:42;10.00;99.90
23089;DHT22;11713;48.506;8.966;2022-11-15T16:40:33;10.00;99.90
23089;DHT22;11713;48.506;8.966;2022-11-15T16:43:08;10.00;99.90
23089;DHT22;11713;48.506;8.966;2022-11-15T16:45:38;9.90;99.90
23089;DHT22;11713;48.506;8.966;2022-11-15T16:48:05;10.00;99.90
23089;DHT22;11713;48.506;8.966;2022-11-15T16:50:34;10.00;99.90
23089;DHT22;11713;48.506;8.966;2022-11-15T16:53:06;9.90;99.90
23089;DHT22;11713;48.506;8.966;2022-11-15T16:55:32;9.90;99.90
23089;DHT22;11713;48.506;8.966;2022-11-15T16:57:58;9.90;99.90
23089;DHT22;11713;48.506;8.966;2022-11-15T17:00:26;9.80;99.90
23089;DHT22;11713;48.506;8.966;2022-11-15T17:02:52;9.80;99.90
23089;DHT22;11713;48.506;8.966;2022-11-15T17:05:20;9.80;99.90
23089;DHT22;11713;48.506;8.966;2022-11-15T17:07:48;9.80;99.90
23089;DHT22;11713;48.506;8.966;2022-11-15T17:10:15;9.80;99.90
23089;DHT22;11713;48.506;8.966;2022-11-15T17:12:41;9.80;99.90
23089;DHT22;11713;48.506;8.966;2022-11-15T17:15:08;9.90;99.90
23089;DHT22;11713;48.506;8.966;2022-11-15T17:17:35;9.90;99.90
23089;DHT22;11713;48.506;8.966;2022-11-15T17:20:01;9.90;99.90
23089;DHT22;11713;48.506;8.966;2022-11-15T17:22:29;9.80;99.90
23089;DHT22;11713;48.506;8.966;2022-11-15T17:24:56;9.80;99.90
23089;DHT22;11713;48.506;8.966;2022-11-15T17:27:21;9.80;99.90
23089;DHT22;11713;48.506;8.966;2022-11-15T17:29:48;9.80;99.90
23089;DHT22;11713;48.506;8.966;2022-11-15T17:32:14;9.80;99.90
23089;DHT22;11713;48.506;8.966;2022-11-15T17:34:40;9.80;99.90
23089;DHT22;11713;48.506;8.966;2022-11-15T17:37:05;9.80;99.90
23089;DHT22;11713;48.506;8.966;2022-11-15T17:39:31;9.80;99.90
23089;DHT22;11713;48.506;8.966;2022-11-15T17:41:57;9.80;99.90
23089;DHT22;11713;48.506;8.966;2022-11-15T17:44:23;9.80;99.90
23089;DHT22;11713;48.506;8.966;2022-11-15T17:46:49;9.80;99.90
23089;DHT22;11713;48.506;8.966;2022-11-15T17:49:15;9.80;99.90
23089;DHT22;11713;48.506;8.966;2022-11-15T17:51:40;9.80;99.90
23089;DHT22;11713;48.506;8.966;2022-11-15T17:54:09;9.80;99.90
23089;DHT22;11713;48.506;8.966;2022-11-15T17:56:38;9.80;99.90
23089;DHT22;11713;48.506;8.966;2022-11-15T17:59:05;9.70;99.90
23089;DHT22;11713;48.506;8.966;2022-11-15T18:01:33;9.70;99.90
23089;DHT22;11713;48.506;8.966;2022-11-15T18:04:01;9.80;99.90
23089;DHT22;11713;48.506;8.966;2022-11-15T18:06:29;9.70;99.90
23089;DHT22;11713;48.506;8.966;2022-11-15T18:08:56;9.70;99.90
23089;DHT22;11713;48.506;8.966;2022-11-15T18:11:55;9.70;99.90
23089;DHT22;11713;48.506;8.966;2022-11-15T18:14:21;9.60;99.90
23089;DHT22;11713;48.506;8.966;2022-11-15T18:16:47;9.60;99.90
23089;DHT22;11713;48.506;8.966;2022-11-15T18:19:13;9.60;99.90
23089;DHT22;11713;48.506;8.966;2022-11-15T18:21:44;9.60;99.90
23089;DHT22;11713;48.506;8.966;2022-11-15T18:24:32;9.60;99.90
23089;DHT22;11713;48.506;8.966;2022-11-15T18:27:00;9.60;99.90
23089;DHT22;11713;48.506;8.966;2022-11-15T18:29:27;9.60;99.90
23089;DHT22;11713;48.506;8.966;2022-11-15T18:31:56;9.50;99.90
23089;DHT22;11713;48.506;8.966;2022-11-15T18:34:27;9.50;99.90
23089;DHT22;11713;48.506;8.966;2022-11-15T18:36:59;9.50;99.90
23089;DHT22;11713;48.506;8.966;2022-11-15T18:39:28;9.50;99.90
23089;DHT22;11713;48.506;8.966;2022-11-15T18:42:01;9.50;99.90
23089;DHT22;11713;48.506;8.966;2022-11-15T18:44:29;9.50;99.90
23089;DHT22;11713;48.506;8.966;2022-11-15T18:46:55;9.50;99.90
23089;DHT22;11713;48.506;8.966;2022-11-15T18:49:22;9.60;99.90
23089;DHT22;11713;48.506;8.966;2022-11-15T18:51:48;9.50;99.90
23089;DHT22;11713;48.506;8.966;2022-11-15T18:54:15;9.50;99.90
23089;DHT22;11713;48.506;8.966;2022-11-15T18:56:41;9.60;99.90
23089;DHT22;11713;48.506;8.966;2022-11-15T18:59:09;9.60;99.90
23089;DHT22;11713;48.506;8.966;2022-11-15T19:01:38;9.60;99.90
23089;DHT22;11713;48.506;8.966;2022-11-15T19:04:12;9.60;99.90
23089;DHT22;11713;48.506;8.966;2022-11-15T19:06:47;9.50;99.90
23089;DHT22;11713;48.506;8.966;2022-11-15T19:09:18;9.50;99.90
23089;DHT22;11713;48.506;8.966;2022-11-15T19:11:45;9.50;99.90
23089;DHT22;11713;48.506;8.966;2022-11-15T19:14:13;9.50;99.90
23089;DHT22;11713;48.506;8.966;2022-11-15T19:16:44;9.40;99.90